Time;durP1;ratioP1;P1;durP2;ratioP2;P2;SDS_P1;SDS_P2;PMS_P1;PMS_P2;Temp;Humidity;BMP_temperature;BMP_pressure;BME280_temperature;BME280_humidity;BME280_pressure;Samples;Min_cycle;Max_cycle;Signal;HPM_P1;HPM_P2
2022/03/04 00:01:46;;;;;;;9.00;5.30;;;;;;;3.58;54.98;102085.66;4914306;28;126535;-48
2022/03/04 00:04:12;;;;;;;9.23;5.70;;;;;;;3.53;54.90;102088.81;4918873;28;97157;-50
2022/03/04 00:06:37;;;;;;;10.57;5.70;;;;;;;3.48;54.80;102081.88;4921118;28;96872;-52
2022/03/04 00:09:03;;;;;;;9.77;5.17;;;;;;;3.42;54.92;102090.91;4918761;28;117684;-51
2022/03/04 00:11:28;;;;;;;8.47;5.10;;;;;;;3.38;54.98;102093.69;4921346;28;97321;-50
2022/03/04 00:13:54;;;;;;;6.77;4.17;;;;;;;3.35;55.06;102089.03;4918744;28;97355;-51
2022/03/04 00:16:19;;;;;;;9.93;4.80;;;;;;;3.27;54.83;102103.13;4920120;28;97341;-51
2022/03/04 00:18:45;;;;;;;12.83;6.93;;;;;;;3.19;55.28;102098.97;4922194;28;96812;-48
2022/03/04 00:21:10;;;;;;;8.90;5.10;;;;;;;3.18;55.25;102114.50;4919600;28;97925;-48
2022/03/04 00:23:36;;;;;;;9.63;6.20;;;;;;;3.17;55.03;102101.31;4920669;28;97258;-48
2022/03/04 00:26:03;;;;;;;8.30;5.57;;;;;;;3.10;55.34;102104.88;4921083;28;97126;-49
2022/03/04 00:28:29;;;;;;;15.13;7.57;;;;;;;3.06;55.45;102106.09;4919971;28;96807;-48
2022/03/04 00:30:54;;;;;;;14.33;8.53;;;;;;;2.99;55.23;102115.84;4917993;28;96785;-48
2022/03/04 00:33:19;;;;;;;16.40;8.90;;;;;;;2.97;55.62;102101.16;4917346;28;117574;-50
2022/03/04 00:35:45;;;;;;;14.10;7.23;;;;;;;3.03;55.67;102100.31;4917916;28;97471;-51
2022/03/04 00:38:10;;;;;;;11.97;6.80;;;;;;;3.08;55.45;102101.03;4922096;28;97455;-48
2022/03/04 00:40:36;;;;;;;10.27;6.20;;;;;;;3.12;55.71;102099.03;4916421;28;122636;-49
2022/03/04 00:43:01;;;;;;;10.97;5.40;;;;;;;3.16;55.60;102105.22;4919332;28;124109;-49
2022/03/04 00:45:26;;;;;;;11.07;6.33;;;;;;;3.17;55.59;102114.91;4914112;28;109558;-49
2022/03/04 00:47:52;;;;;;;16.77;9.30;;;;;;;3.18;55.65;102102.84;4921863;28;97480;-51
2022/03/04 00:50:17;;;;;;;19.67;9.33;;;;;;;3.18;55.42;102105.56;4917677;28;97569;-49
2022/03/04 00:52:42;;;;;;;14.00;8.27;;;;;;;3.24;55.77;102109.38;4913391;28;98919;-48
2022/03/04 00:55:09;;;;;;;14.00;7.50;;;;;;;3.32;55.76;102129.91;4919140;28;117451;-50
2022/03/04 00:57:35;;;;;;;12.00;6.20;;;;;;;3.37;55.64;102104.94;4918016;28;97544;-52
2022/03/04 01:00:00;;;;;;;9.00;5.60;;;;;;;3.44;55.52;102108.38;4920738;28;97350;-55
2022/03/04 01:02:25;;;;;;;12.60;5.80;;;;;;;3.50;55.60;102104.00;4921346;28;97146;-49
2022/03/04 01:04:51;;;;;;;10.13;5.10;;;;;;;3.57;55.54;102106.66;4917271;28;96932;-52
2022/03/04 01:07:16;;;;;;;7.37;4.00;;;;;;;3.63;55.49;102106.94;4915398;28;97146;-49
2022/03/04 01:09:42;;;;;;;7.30;4.10;;;;;;;3.66;55.50;102109.66;4917591;28;98076;-49
2022/03/04 01:12:08;;;;;;;8.20;4.83;;;;;;;3.64;55.49;102113.94;4922551;28;122599;-52
2022/03/04 01:14:33;;;;;;;8.07;4.30;;;;;;;3.67;55.65;102102.22;4919568;28;97139;-48
2022/03/04 01:16:58;;;;;;;6.17;4.17;;;;;;;3.68;55.51;102104.56;4919012;28;97098;-49
2022/03/04 01:19:24;;;;;;;6.60;4.57;;;;;;;3.67;55.56;102104.94;4914378;28;97456;-50
2022/03/04 01:21:49;;;;;;;8.37;4.83;;;;;;;3.71;55.57;102100.25;4914775;28;125800;-49
2022/03/04 01:24:15;;;;;;;8.73;5.00;;;;;;;3.72;55.66;102112.66;4920667;28;96762;-49
2022/03/04 01:26:40;;;;;;;8.37;5.03;;;;;;;3.77;55.63;102104.06;4916083;28;96720;-50
2022/03/04 01:29:05;;;;;;;9.00;5.07;;;;;;;3.73;55.62;102103.34;4918683;28;126841;-48
2022/03/04 01:31:31;;;;;;;9.83;5.47;;;;;;;3.72;55.78;102088.94;4915904;28;122352;-49
2022/03/04 01:33:56;;;;;;;7.77;4.57;;;;;;;3.74;55.94;102096.69;4921902;28;109874;-48
2022/03/04 01:36:22;;;;;;;7.40;4.60;;;;;;;3.77;55.85;102096.66;4918106;28;97838;-48
2022/03/04 01:38:47;;;;;;;6.50;4.00;;;;;;;3.79;55.72;102105.19;4921156;28;97746;-48
2022/03/04 01:41:13;;;;;;;7.23;4.63;;;;;;;3.81;55.85;102099.31;4913549;28;98367;-48
2022/03/04 01:43:38;;;;;;;7.27;4.50;;;;;;;3.87;55.78;102091.50;4916802;28;97018;-52
2022/03/04 01:46:15;;;;;;;5.70;4.20;;;;;;;3.92;56.56;102082.84;4919625;28;96914;-49
2022/03/04 01:48:42;;;;;;;8.40;4.60;;;;;;;3.96;55.80;102100.66;4919239;28;100386;-50
2022/03/04 01:51:09;;;;;;;8.13;4.57;;;;;;;3.92;55.80;102088.28;4916239;28;100382;-53
2022/03/04 01:53:34;;;;;;;7.93;4.53;;;;;;;3.90;55.80;102085.22;4916362;28;97056;-50
2022/03/04 01:55:59;;;;;;;7.23;4.13;;;;;;;3.95;55.91;102082.81;4911000;28;97494;-53
2022/03/04 01:58:24;;;;;;;6.80;4.20;;;;;;;3.95;55.81;102082.81;4917380;28;125888;-49
2022/03/04 02:00:50;;;;;;;7.83;4.43;;;;;;;3.93;55.87;102095.28;4916515;28;126583;-48
2022/03/04 02:03:16;;;;;;;7.60;4.53;;;;;;;3.94;55.99;102097.59;4912186;28;98998;-48
2022/03/04 02:05:41;;;;;;;9.33;5.40;;;;;;;3.97;56.05;102090.56;4917356;28;106309;-50
2022/03/04 02:08:07;;;;;;;5.23;3.90;;;;;;;3.95;56.01;102099.13;4915995;28;99173;-50
2022/03/04 02:10:32;;;;;;;6.17;3.97;;;;;;;3.90;56.11;102096.88;4915743;28;97210;-49
2022/03/04 02:12:57;;;;;;;6.40;3.93;;;;;;;3.94;56.16;102089.41;4919729;28;97142;-49
2022/03/04 02:15:23;;;;;;;6.57;4.60;;;;;;;3.94;56.22;102096.81;4918740;28;115380;-53
2022/03/04 02:17:48;;;;;;;9.03;4.50;;;;;;;3.95;56.38;102099.13;4916984;28;98459;-50
2022/03/04 02:20:13;;;;;;;8.20;4.80;;;;;;;3.97;56.21;102096.78;4917096;28;97191;-50
2022/03/04 02:22:39;;;;;;;7.63;4.50;;;;;;;4.03;56.22;102095.13;4915954;28;97062;-48
2022/03/04 02:25:05;;;;;;;5.60;3.60;;;;;;;4.03;56.10;102095.13;4914918;28;97504;-53
2022/03/04 02:27:32;;;;;;;7.30;4.33;;;;;;;4.06;56.18;102102.47;4917202;28;100213;-49
2022/03/04 02:29:57;;;;;;;7.00;3.90;;;;;;;4.07;56.01;102095.84;4922055;28;96970;-49
2022/03/04 02:32:23;;;;;;;6.13;3.40;;;;;;;4.07;56.22;102095.84;4914246;28;96814;-50
2022/03/04 02:34:48;;;;;;;4.90;3.50;;;;;;;4.11;56.11;102091.09;4917717;28;96945;-53
2022/03/04 02:37:14;;;;;;;6.53;3.53;;;;;;;4.12;56.01;102100.06;4913833;28;106688;-49
2022/03/04 02:39:39;;;;;;;6.43;4.20;;;;;;;4.09;56.05;102090.75;4921762;28;97281;-52
2022/03/04 02:42:04;;;;;;;8.03;4.40;;;;;;;4.03;56.14;102092.41;4921092;28;96953;-49
2022/03/04 02:44:30;;;;;;;8.73;4.33;;;;;;;4.03;56.30;102092.41;4923516;28;97073;-49
2022/03/04 02:46:55;;;;;;;6.43;3.87;;;;;;;4.04;56.08;102099.38;4918704;28;105694;-55
2022/03/04 02:49:20;;;;;;;7.40;4.87;;;;;;;4.04;56.25;102088.47;4920017;28;104712;-48
2022/03/04 02:51:46;;;;;;;7.07;4.37;;;;;;;4.02;56.00;102088.13;4919776;28;115503;-49
2022/03/04 02:54:11;;;;;;;6.70;3.80;;;;;;;4.00;56.05;102090.50;4919660;28;117921;-50
2022/03/04 02:56:37;;;;;;;8.03;4.77;;;;;;;4.01;56.19;102089.31;4919109;28;97145;-48
2022/03/04 02:59:02;;;;;;;6.87;3.87;;;;;;;3.97;56.09;102082.38;4917162;28;97723;-51
2022/03/04 03:01:28;;;;;;;4.30;3.40;;;;;;;3.94;56.46;102086.69;4921169;28;97205;-49
2022/03/04 03:03:53;;;;;;;5.07;3.60;;;;;;;3.93;56.20;102087.13;4922254;28;97537;-49
2022/03/04 03:06:18;;;;;;;9.00;4.83;;;;;;;3.84;56.14;102090.34;4921292;28;97467;-49
2022/03/04 03:08:44;;;;;;;6.17;3.73;;;;;;;3.79;56.22;102097.03;4917244;28;97266;-50
2022/03/04 03:11:09;;;;;;;7.17;4.10;;;;;;;3.79;56.29;102085.34;4921049;28;97321;-50
2022/03/04 03:13:35;;;;;;;7.10;4.20;;;;;;;3.78;56.45;102090.03;4920537;28;98106;-51
2022/03/04 03:16:00;;;;;;;6.30;4.10;;;;;;;3.78;56.20;102087.31;4917387;28;98315;-51
2022/03/04 03:18:26;;;;;;;7.67;4.60;;;;;;;3.77;56.19;102082.28;4918129;28;97965;-51
2022/03/04 03:20:51;;;;;;;6.83;4.43;;;;;;;3.71;56.43;102089.38;4911404;28;97776;-50
2022/03/04 03:23:16;;;;;;;6.03;4.10;;;;;;;3.65;56.31;102096.44;4920359;28;117575;-49
2022/03/04 03:25:42;;;;;;;9.10;4.50;;;;;;;3.61;56.40;102084.81;4922313;28;98487;-50
2022/03/04 03:28:08;;;;;;;8.00;4.43;;;;;;;3.59;56.50;102089.91;4918338;28;96880;-52
2022/03/04 03:30:33;;;;;;;8.63;4.43;;;;;;;3.51;56.44;102091.19;4917238;28;97365;-52
2022/03/04 03:32:58;;;;;;;29.97;13.17;;;;;;;3.45;56.83;102096.28;4921819;28;96870;-50
2022/03/04 03:35:24;;;;;;;24.17;11.07;;;;;;;3.37;56.40;102102.22;4918077;28;97354;-50
2022/03/04 03:37:50;;;;;;;47.40;18.03;;;;;;;3.31;56.94;102099.19;4921816;28;97037;-49
2022/03/04 03:40:15;;;;;;;59.03;26.20;;;;;;;3.27;56.76;102111.28;4917963;28;97073;-49
2022/03/04 03:42:41;;;;;;;59.47;22.53;;;;;;;3.19;57.10;102097.00;4919333;28;97387;-52
2022/03/04 03:45:08;;;;;;;38.27;15.50;;;;;;;3.16;57.04;102086.16;4918265;28;97384;-51
2022/03/04 03:47:34;;;;;;;157.03;60.87;;;;;;;3.15;57.05;102088.13;4920617;28;97142;-50
2022/03/04 03:49:59;;;;;;;75.63;29.33;;;;;;;3.13;57.26;102090.47;4920191;28;97583;-51
2022/03/04 03:52:25;;;;;;;62.40;25.53;;;;;;;3.10;56.97;102090.53;4919495;28;97037;-48
2022/03/04 03:54:50;;;;;;;39.30;16.70;;;;;;;3.12;57.13;102096.31;4920173;28;97099;-49
2022/03/04 03:57:15;;;;;;;31.83;15.10;;;;;;;3.06;57.15;102095.22;4920781;28;96879;-53
2022/03/04 03:59:41;;;;;;;46.83;20.33;;;;;;;3.01;57.22;102091.75;4919824;28;97556;-50
2022/03/04 04:02:06;;;;;;;58.07;24.73;;;;;;;2.98;57.15;102095.31;4919451;28;96936;-51
2022/03/04 04:04:34;;;;;;;81.23;29.70;;;;;;;2.95;57.30;102098.03;4920740;28;97484;-51
2022/03/04 04:07:11;;;;;;;66.80;30.30;;;;;;;3.01;57.64;102101.88;4917924;28;96950;-48
2022/03/04 04:09:36;;;;;;;49.07;22.53;;;;;;;3.00;57.25;102101.09;4917276;28;98543;-50
2022/03/04 04:12:02;;;;;;;38.37;16.23;;;;;;;2.96;57.15;102097.66;4918867;28;99234;-51
2022/03/04 04:14:28;;;;;;;23.40;11.30;;;;;;;2.88;57.32;102092.69;4916120;28;98185;-49
2022/03/04 04:16:54;;;;;;;21.87;10.10;;;;;;;2.92;57.29;102091.50;4917994;28;96955;-49
2022/03/04 04:19:20;;;;;;;15.30;7.40;;;;;;;2.95;57.15;102093.38;4920847;28;97154;-51
2022/03/04 04:21:46;;;;;;;11.20;6.03;;;;;;;2.97;57.06;102088.31;4918672;28;97218;-50
2022/03/04 04:24:11;;;;;;;11.40;5.20;;;;;;;2.92;57.19;102093.44;4917685;28;97318;-53
2022/03/04 04:26:36;;;;;;;11.17;5.83;;;;;;;2.87;57.24;102089.19;4920489;28;125421;-49
2022/03/04 04:29:03;;;;;;;15.37;6.80;;;;;;;2.88;57.46;102081.81;4916459;28;96743;-49
2022/03/04 04:31:28;;;;;;;24.10;9.10;;;;;;;2.88;57.48;102088.00;4916289;28;96907;-50
2022/03/04 04:33:53;;;;;;;15.30;7.17;;;;;;;2.83;57.29;102093.91;4922163;28;97435;-49
2022/03/04 04:36:19;;;;;;;12.33;5.60;;;;;;;2.82;57.32;102092.34;4916877;28;98542;-49
2022/03/04 04:38:45;;;;;;;11.90;6.03;;;;;;;2.76;57.32;102099.41;4915550;28;97698;-49
2022/03/04 04:41:11;;;;;;;12.20;5.70;;;;;;;2.72;57.22;102093.25;4918270;28;96840;-51
2022/03/04 04:43:36;;;;;;;12.97;6.20;;;;;;;2.74;57.36;102101.75;4912112;28;98240;-53
2022/03/04 04:46:03;;;;;;;9.40;4.53;;;;;;;2.78;57.48;102099.00;4916344;28;97226;-49
2022/03/04 04:48:29;;;;;;;14.60;5.73;;;;;;;2.79;57.32;102095.13;4918919;28;97434;-49
2022/03/04 04:50:54;;;;;;;13.00;5.50;;;;;;;2.74;57.10;102092.81;4921281;28;97150;-50
2022/03/04 04:53:20;;;;;;;10.83;5.30;;;;;;;2.75;57.41;102103.28;4921091;28;97342;-49
2022/03/04 04:55:45;;;;;;;11.83;5.83;;;;;;;2.77;57.34;102100.97;4917476;28;98318;-52
2022/03/04 04:58:11;;;;;;;8.97;5.03;;;;;;;2.79;57.31;102108.69;4914151;28;96858;-49
2022/03/04 05:00:36;;;;;;;11.70;5.50;;;;;;;2.81;57.40;102104.41;4917165;28;97421;-49
2022/03/04 05:03:02;;;;;;;7.60;4.73;;;;;;;2.79;57.39;102100.56;4915606;28;97490;-51
2022/03/04 05:05:27;;;;;;;9.87;5.10;;;;;;;2.75;57.27;102097.84;4915504;28;98145;-49
2022/03/04 05:07:52;;;;;;;10.30;5.07;;;;;;;2.75;57.23;102097.09;4917090;28;117575;-49
2022/03/04 05:10:18;;;;;;;9.37;4.77;;;;;;;2.75;57.27;102099.81;4916847;28;98006;-54
2022/03/04 05:12:43;;;;;;;8.60;5.07;;;;;;;2.63;57.40;102098.38;4914070;28;96765;-50
2022/03/04 05:15:09;;;;;;;9.33;4.80;;;;;;;2.54;57.30;102097.28;4916342;28;97576;-53
2022/03/04 05:17:34;;;;;;;6.23;4.20;;;;;;;2.54;57.53;102111.63;4916618;28;97193;-52
2022/03/04 05:20:00;;;;;;;9.20;4.17;;;;;;;2.57;57.42;102099.97;4912706;28;116462;-53
2022/03/04 05:22:25;;;;;;;7.37;4.00;;;;;;;2.56;57.59;102101.13;4911334;28;97782;-50
2022/03/04 05:24:50;;;;;;;8.47;4.77;;;;;;;2.58;57.62;102098.78;4913205;28;98580;-49
2022/03/04 05:27:15;;;;;;;6.60;3.70;;;;;;;2.60;57.44;102092.97;4916097;28;108876;-48
2022/03/04 05:29:41;;;;;;;7.90;4.10;;;;;;;2.59;57.42;102127.50;4919916;28;98551;-50
2022/03/04 05:32:07;;;;;;;6.30;3.43;;;;;;;2.60;57.66;102104.59;4933448;22;96787;-51
2022/03/04 05:34:33;;;;;;;7.87;4.00;;;;;;;2.61;57.24;102099.94;4943147;28;97478;-46
2022/03/04 05:36:58;;;;;;;5.83;4.23;;;;;;;2.60;57.31;102099.16;4942054;28;97043;-47
2022/03/04 05:39:24;;;;;;;4.57;3.00;;;;;;;2.56;57.33;102093.00;4943795;28;97421;-51
2022/03/04 05:41:50;;;;;;;6.57;4.20;;;;;;;2.51;57.10;102098.84;4945192;28;97329;-47
2022/03/04 05:44:16;;;;;;;4.97;3.40;;;;;;;2.44;57.21;102114.44;4961594;28;97801;-48
2022/03/04 05:46:42;;;;;;;6.40;3.77;;;;;;;2.40;57.36;102100.91;4957107;28;96809;-49
2022/03/04 05:49:07;;;;;;;3.43;3.13;;;;;;;2.37;57.31;102107.13;4956935;28;97424;-47
2022/03/04 05:51:33;;;;;;;5.67;3.47;;;;;;;2.33;57.40;102111.81;4960186;28;112085;-47
2022/03/04 05:53:59;;;;;;;5.10;3.40;;;;;;;2.25;57.57;102094.78;4954527;28;96842;-47
2022/03/04 05:56:24;;;;;;;6.83;4.10;;;;;;;2.26;57.65;102098.28;4958602;28;96834;-52
2022/03/04 05:58:50;;;;;;;6.90;3.97;;;;;;;2.26;57.56;102109.16;4958991;28;97660;-47
2022/03/04 06:01:15;;;;;;;7.23;3.80;;;;;;;2.25;57.45;102113.03;4958299;28;97271;-47
2022/03/04 06:03:41;;;;;;;6.67;4.10;;;;;;;2.25;57.91;102118.44;4963327;28;97256;-47
2022/03/04 06:06:11;;;;;;;5.97;3.87;;;;;;;2.26;57.48;102109.94;4954769;28;96910;-47
2022/03/04 06:08:37;;;;;;;6.50;4.27;;;;;;;2.20;57.58;102111.53;4959906;28;96818;-47
2022/03/04 06:11:02;;;;;;;9.37;4.20;;;;;;;2.19;57.66;102112.69;4962013;28;96815;-47
2022/03/04 06:13:28;;;;;;;5.47;3.40;;;;;;;2.18;57.62;102122.00;4956894;28;97329;-47
2022/03/04 06:15:53;;;;;;;7.53;3.27;;;;;;;2.21;57.57;102117.72;4960273;28;96966;-47
2022/03/04 06:18:19;;;;;;;5.53;3.60;;;;;;;2.20;57.62;102118.88;4955709;28;96825;-52
2022/03/04 06:20:45;;;;;;;4.77;3.27;;;;;;;2.19;57.74;102118.13;4956671;28;99539;-47
2022/03/04 06:23:11;;;;;;;6.00;3.70;;;;;;;2.12;57.57;102112.72;4957316;28;97438;-47
2022/03/04 06:25:36;;;;;;;5.90;3.60;;;;;;;2.12;57.97;102123.59;4956055;28;97339;-49
2022/03/04 06:28:03;;;;;;;6.80;3.83;;;;;;;2.17;57.90;102125.09;4960705;28;96856;-47
2022/03/04 06:30:34;;;;;;;4.87;3.50;;;;;;;2.23;57.93;102124.28;4959074;28;97644;-47
2022/03/04 06:35:44;;;;;;;5.20;3.33;;;;;;;2.27;57.83;102124.28;4960439;28;97327;-47
2022/03/04 06:38:10;;;;;;;7.90;3.77;;;;;;;2.33;57.82;102135.47;4962802;28;97166;-51
2022/03/04 06:40:36;;;;;;;5.63;3.50;;;;;;;2.40;58.06;102128.06;4957633;28;99834;-47
2022/03/04 06:43:02;;;;;;;7.73;4.27;;;;;;;2.49;57.75;102131.06;4959920;28;97331;-47
2022/03/04 06:45:28;;;;;;;5.50;3.60;;;;;;;2.59;57.93;102143.03;4954928;28;97840;-50
2022/03/04 06:47:53;;;;;;;7.73;3.17;;;;;;;2.69;57.70;102145.66;4951875;28;97297;-47
2022/03/04 06:50:19;;;;;;;9.13;4.23;;;;;;;2.74;57.96;102147.94;4957702;28;126302;-47
2022/03/04 06:52:44;;;;;;;7.00;4.30;;;;;;;2.83;58.06;102153.69;4954154;28;97709;-49
2022/03/04 06:55:10;;;;;;;7.50;3.70;;;;;;;2.91;57.92;102149.72;4955641;28;97125;-48
2022/03/04 06:57:36;;;;;;;5.80;3.37;;;;;;;2.89;57.85;102148.59;4961104;28;97676;-46
2022/03/04 07:00:07;;;;;;;6.37;3.70;;;;;;;2.96;57.97;102153.97;4958758;28;97494;-46
2022/03/04 07:02:32;;;;;;;4.87;3.23;;;;;;;3.03;57.90;102162.84;4962685;28;100210;-47
2022/03/04 07:04:57;;;;;;;5.30;3.50;;;;;;;3.12;57.98;102167.78;4957233;28;96794;-48
2022/03/04 07:07:22;;;;;;;4.23;3.07;;;;;;;3.22;57.84;102171.56;4958265;28;115057;-48
2022/03/04 07:09:48;;;;;;;6.20;3.27;;;;;;;3.31;57.94;102174.56;4959913;28;97599;-47
2022/03/04 07:12:13;;;;;;;8.63;3.07;;;;;;;3.38;57.82;102174.50;4957367;28;112616;-46
2022/03/04 07:14:38;;;;;;;4.30;3.00;;;;;;;3.43;57.86;102172.09;4957781;28;122829;-47
2022/03/04 07:17:04;;;;;;;4.00;2.80;;;;;;;3.48;57.71;102187.22;4958768;28;106737;-49
2022/03/04 07:19:29;;;;;;;5.60;3.93;;;;;;;3.48;57.91;102179.81;4956231;28;98831;-47
2022/03/04 07:21:54;;;;;;;4.40;3.70;;;;;;;3.46;57.71;102178.69;4961432;28;98180;-48
2022/03/04 07:24:19;;;;;;;4.07;2.93;;;;;;;3.53;58.18;102182.09;4960820;28;96909;-49
2022/03/04 07:26:45;;;;;;;9.50;3.57;;;;;;;3.60;58.06;102181.25;4958708;28;116447;-47
2022/03/04 07:29:10;;;;;;;4.73;3.80;;;;;;;3.67;58.07;102187.38;4961923;28;119465;-47
2022/03/04 07:31:35;;;;;;;7.90;3.33;;;;;;;3.71;58.25;102198.22;4961643;28;118571;-47
2022/03/04 07:34:01;;;;;;;3.13;2.73;;;;;;;3.74;58.52;102197.41;4962362;28;97028;-47
2022/03/04 07:36:26;;;;;;;5.67;3.37;;;;;;;3.77;58.34;102188.44;4956825;28;115001;-46
2022/03/04 07:38:55;;;;;;;3.90;2.73;;;;;;;3.77;58.55;102191.16;4963479;28;96736;-47
2022/03/04 07:41:20;;;;;;;6.07;3.60;;;;;;;3.84;58.37;102201.19;4964256;28;97327;-48
2022/03/04 07:43:45;;;;;;;7.37;3.53;;;;;;;3.95;58.46;102196.38;4960527;28;96588;-49
2022/03/04 07:46:11;;;;;;;5.20;3.03;;;;;;;3.99;58.32;102197.88;4961306;28;107753;-50
2022/03/04 07:48:36;;;;;;;3.83;3.00;;;;;;;4.03;58.07;102204.03;4960466;28;96950;-47
2022/03/04 07:51:02;;;;;;;5.67;3.40;;;;;;;4.13;58.48;102194.94;4961552;28;97891;-47
2022/03/04 07:53:27;;;;;;;5.40;4.20;;;;;;;4.17;58.16;102198.38;4963578;28;97044;-53
2022/03/04 07:55:52;;;;;;;4.37;3.20;;;;;;;4.18;58.50;102199.94;4960687;28;116743;-49
2022/03/04 07:58:17;;;;;;;6.00;3.50;;;;;;;4.27;57.99;102199.44;4958816;28;96790;-50
2022/03/04 08:00:43;;;;;;;5.23;3.77;;;;;;;4.34;57.84;102197.38;4963042;28;127187;-49
2022/03/04 08:03:08;;;;;;;8.13;3.53;;;;;;;4.42;58.13;102206.22;4961067;28;97301;-48
2022/03/04 08:05:34;;;;;;;6.60;3.93;;;;;;;4.47;58.29;102209.25;4960151;28;96914;-48
2022/03/04 08:07:59;;;;;;;6.10;3.70;;;;;;;4.52;57.94;102202.59;4961562;28;97236;-47
2022/03/04 08:10:25;;;;;;;6.23;3.60;;;;;;;4.56;58.03;102204.03;4959419;28;97126;-47
2022/03/04 08:12:50;;;;;;;5.90;3.67;;;;;;;4.64;57.59;102195.75;4962534;28;96824;-49
2022/03/04 08:15:15;;;;;;;5.23;3.30;;;;;;;4.68;57.82;102202.69;4959304;28;118154;-48
2022/03/04 08:17:41;;;;;;;2.40;2.20;;;;;;;4.74;58.03;102203.03;4959648;28;96808;-50
2022/03/04 08:20:08;;;;;;;4.57;3.53;;;;;;;4.83;57.77;102203.25;4961667;28;97426;-52
2022/03/04 08:22:33;;;;;;;5.50;3.67;;;;;;;4.86;57.57;102199.69;4957410;28;97226;-47
2022/03/04 08:24:58;;;;;;;3.87;3.27;;;;;;;4.94;57.69;102212.00;4961592;28;97187;-48
2022/03/04 08:27:24;;;;;;;4.57;3.30;;;;;;;4.99;57.78;102209.59;4958706;28;96977;-47
2022/03/04 08:29:49;;;;;;;5.07;4.00;;;;;;;5.04;58.06;102213.81;4956824;28;126157;-48
2022/03/04 08:32:14;;;;;;;4.40;3.37;;;;;;;5.08;57.84;102209.84;4962423;28;115894;-47
2022/03/04 08:34:39;;;;;;;5.83;4.17;;;;;;;5.15;57.43;102222.56;4963178;28;96997;-47
2022/03/04 08:37:05;;;;;;;5.37;3.97;;;;;;;5.23;57.46;102216.59;4959928;28;97304;-48
2022/03/04 08:39:30;;;;;;;4.80;3.30;;;;;;;5.32;57.59;102221.50;4958318;28;98418;-48
2022/03/04 08:41:56;;;;;;;5.20;3.17;;;;;;;5.37;57.30;102218.28;4959255;28;97248;-46
2022/03/04 08:44:21;;;;;;;4.23;3.40;;;;;;;5.38;57.32;102225.28;4961020;28;97091;-48
2022/03/04 08:46:47;;;;;;;6.00;3.60;;;;;;;5.46;57.42;102226.66;4959048;28;120660;-47
2022/03/04 08:49:13;;;;;;;3.97;3.10;;;;;;;5.54;57.23;102228.09;4961987;28;97150;-47
2022/03/04 08:51:39;;;;;;;7.03;3.90;;;;;;;5.61;57.35;102236.16;4959776;28;97034;-47
2022/03/04 08:54:06;;;;;;;4.13;3.33;;;;;;;5.68;57.05;102224.34;4959152;28;97419;-52
2022/03/04 08:56:32;;;;;;;3.77;3.20;;;;;;;5.67;57.03;102234.47;4960098;28;96837;-50
2022/03/04 08:58:58;;;;;;;4.20;3.40;;;;;;;5.70;57.24;102230.16;4962274;28;97460;-47
2022/03/04 09:01:23;;;;;;;5.63;4.20;;;;;;;5.77;56.81;102227.25;4958626;28;117962;-46
2022/03/04 09:03:48;;;;;;;7.17;4.63;;;;;;;5.83;56.76;102236.50;4960978;28;103500;-49
2022/03/04 09:06:14;;;;;;;6.00;3.57;;;;;;;5.85;57.20;102232.19;4959380;28;97139;-47
2022/03/04 09:08:39;;;;;;;6.33;4.07;;;;;;;5.89;56.88;102238.38;4958411;28;97243;-47
2022/03/04 09:11:05;;;;;;;4.13;3.53;;;;;;;5.94;56.64;102245.31;4963709;28;96865;-49
2022/03/04 09:13:32;;;;;;;4.80;3.63;;;;;;;5.99;56.86;102247.50;4959636;28;96918;-47
2022/03/04 09:15:58;;;;;;;7.10;4.27;;;;;;;6.06;56.97;102244.66;4960054;28;98496;-47
2022/03/04 09:18:24;;;;;;;6.03;3.97;;;;;;;6.14;57.05;102253.47;4961379;28;97059;-48
2022/03/04 09:20:49;;;;;;;7.07;4.40;;;;;;;6.23;56.91;102250.91;4958282;28;96947;-47
2022/03/04 09:23:14;;;;;;;5.80;3.73;;;;;;;6.31;56.66;102258.53;4960710;28;97243;-47
2022/03/04 09:25:40;;;;;;;4.37;3.47;;;;;;;6.30;56.61;102256.25;4959446;28;111755;-51
2022/03/04 09:28:05;;;;;;;6.13;3.83;;;;;;;6.39;56.43;102264.63;4959033;28;97066;-47
2022/03/04 09:30:33;;;;;;;5.57;3.83;;;;;;;6.40;56.71;102266.19;4960819;28;96805;-47
2022/03/04 09:32:59;;;;;;;8.10;4.30;;;;;;;6.46;56.49;102278.94;4957106;28;96990;-50
2022/03/04 09:35:24;;;;;;;3.60;3.30;;;;;;;6.47;56.74;102275.00;4961303;28;97467;-48
2022/03/04 09:37:49;;;;;;;6.77;3.90;;;;;;;6.47;56.44;102263.28;4961669;28;97355;-47
2022/03/04 09:40:15;;;;;;;8.03;4.00;;;;;;;6.46;56.25;102268.00;4958169;28;115878;-52
2022/03/04 09:42:40;;;;;;;7.67;3.60;;;;;;;6.52;56.51;102270.97;4958985;28;97149;-47
2022/03/04 09:45:06;;;;;;;9.00;4.20;;;;;;;6.49;56.49;102282.75;4957696;28;98541;-47
2022/03/04 09:47:32;;;;;;;6.10;3.70;;;;;;;6.43;56.20;102276.25;4957310;28;99996;-47
2022/03/04 09:49:58;;;;;;;6.30;3.90;;;;;;;6.39;56.46;102283.78;4958092;28;96867;-46
2022/03/04 09:52:24;;;;;;;5.30;3.90;;;;;;;6.41;56.48;102284.13;4956413;28;97469;-48
2022/03/04 09:54:51;;;;;;;5.70;3.90;;;;;;;6.47;56.59;102287.88;4958455;28;97533;-48
2022/03/04 09:57:17;;;;;;;5.67;3.53;;;;;;;6.48;56.41;102282.00;4961182;28;96781;-48
2022/03/04 09:59:43;;;;;;;6.77;4.67;;;;;;;6.44;56.16;102292.25;4956986;28;97059;-49
2022/03/04 10:02:10;;;;;;;5.50;3.93;;;;;;;6.45;56.46;102285.59;4960818;28;96770;-53
2022/03/04 10:04:37;;;;;;;5.07;3.60;;;;;;;6.45;56.48;102307.44;4958465;28;99660;-47
2022/03/04 10:07:16;;;;;;;3.90;3.50;;;;;;;6.32;56.09;102289.38;4961748;28;98923;-49
2022/03/04 10:09:44;;;;;;;10.77;3.80;;;;;;;6.30;56.55;102289.81;4961984;28;96866;-48
2022/03/04 10:12:11;;;;;;;7.70;4.13;;;;;;;6.46;56.56;102287.13;4955555;28;96841;-47
2022/03/04 10:15:06;;;;;;;6.80;4.13;;;;;;;6.55;56.31;102284.56;4959251;28;97371;-46
2022/03/04 10:17:33;;;;;;;5.73;4.00;;;;;;;6.70;56.29;102293.25;4960724;28;100820;-47
2022/03/04 10:20:07;;;;;;;5.53;3.70;;;;;;;6.79;56.10;102288.72;4958412;28;97238;-46
2022/03/04 10:22:45;;;;;;;8.20;4.27;;;;;;;6.83;55.45;102288.63;4955864;28;96892;-47
2022/03/04 10:25:14;;;;;;;6.93;3.90;;;;;;;6.77;55.51;102285.63;4962106;28;97066;-47
2022/03/04 10:27:39;;;;;;;6.57;4.10;;;;;;;6.70;55.92;102294.03;4956995;28;97789;-49
2022/03/04 10:30:05;;;;;;;5.47;3.40;;;;;;;6.75;55.50;102292.72;4961278;28;105941;-47
2022/03/04 10:32:32;;;;;;;4.43;3.60;;;;;;;6.73;55.62;102297.84;4960648;28;96953;-46
2022/03/04 10:35:05;;;;;;;7.20;4.40;;;;;;;6.75;55.58;102298.19;4957283;28;96882;-47
2022/03/04 10:37:52;;;;;;;5.43;3.73;;;;;;;6.86;55.29;102298.72;4961479;28;96671;-48
2022/03/04 10:40:19;;;;;;;7.07;3.63;;;;;;;6.94;55.74;102297.38;4962071;28;97127;-46
2022/03/04 10:42:52;;;;;;;5.10;3.30;;;;;;;6.99;55.40;102307.78;4956900;28;97120;-48
2022/03/04 10:45:34;;;;;;;4.07;3.60;;;;;;;7.02;55.34;102317.09;4962551;28;100572;-47
2022/03/04 10:48:09;;;;;;;3.97;3.30;;;;;;;7.02;55.34;102304.22;4958131;28;102005;-48
2022/03/04 10:50:46;;;;;;;5.30;3.90;;;;;;;6.93;55.43;102298.56;4957479;28;96864;-50
2022/03/04 10:53:14;;;;;;;4.00;3.20;;;;;;;6.85;55.55;102302.66;4961500;28;96845;-52
2022/03/04 10:55:45;;;;;;;5.00;3.30;;;;;;;6.91;55.44;102303.69;4959738;28;96969;-50
2022/03/04 10:58:25;;;;;;;4.80;3.30;;;;;;;6.86;55.12;102295.97;4957409;28;97113;-47
2022/03/04 11:00:59;;;;;;;4.47;3.27;;;;;;;6.90;55.45;102299.44;4964128;28;96699;-47
2022/03/04 11:03:29;;;;;;;4.87;3.90;;;;;;;6.78;55.17;102298.13;4960207;28;97388;-51
2022/03/04 11:05:58;;;;;;;5.10;3.87;;;;;;;6.71;55.62;102303.75;4959805;28;98075;-47
2022/03/04 11:08:23;;;;;;;6.90;4.60;;;;;;;6.63;54.69;102304.34;4963548;28;97192;-49
2022/03/04 11:10:50;;;;;;;5.80;3.80;;;;;;;6.53;55.45;102302.63;4964395;28;97190;-47
2022/03/04 11:13:16;;;;;;;4.63;4.17;;;;;;;6.51;55.62;102299.53;4961379;28;97357;-48
2022/03/04 11:15:43;;;;;;;7.23;3.83;;;;;;;6.57;55.20;102304.06;4964696;28;96958;-49
2022/03/04 11:18:14;;;;;;;5.03;4.00;;;;;;;6.67;55.25;102294.06;4960420;28;96938;-51
2022/03/04 11:20:42;;;;;;;4.03;3.37;;;;;;;6.71;55.44;102298.28;4958720;28;97211;-50
2022/03/04 11:23:09;;;;;;;4.53;3.57;;;;;;;6.72;55.14;102294.38;4962703;28;97287;-48
2022/03/04 11:25:36;;;;;;;3.50;3.20;;;;;;;6.71;54.69;102297.50;4965940;28;99978;-49
2022/03/04 11:28:09;;;;;;;4.43;3.53;;;;;;;6.69;54.82;102303.41;4960020;28;97073;-50